createdAt,value
2019-01-27T00:00:02.886Z,6.1
2019-01-27T00:05:02.624Z,6.1
2019-01-27T00:10:03.061Z,6.0
2019-01-27T00:15:02.490Z,6.0
2019-01-27T00:20:02.118Z,6.0
2019-01-27T00:25:01.653Z,5.9
2019-01-27T00:30:02.986Z,5.9
2019-01-27T00:35:02.415Z,5.4
2019-01-27T00:40:02.848Z,5.3
2019-01-27T00:45:03.194Z,5.4
2019-01-27T00:50:02.614Z,5.4
2019-01-27T00:55:02.951Z,5.3
2019-01-27T01:00:03.342Z,5.4
2019-01-27T01:05:02.747Z,5.4
2019-01-27T01:10:03.152Z,5.3
2019-01-27T01:15:02.578Z,5.4
2019-01-27T01:20:02.925Z,5.4
2019-01-27T01:25:03.363Z,5.4
2019-01-27T01:30:02.688Z,5.4
2019-01-27T01:35:03.125Z,5.4
2019-01-27T01:40:02.532Z,5.4
2019-01-27T01:45:02.889Z,5.4
2019-01-27T01:50:03.224Z,5.4
2019-01-27T01:55:02.626Z,5.5
2019-01-27T02:00:02.989Z,5.5
2019-01-27T02:05:02.411Z,5.5
2019-01-27T02:10:02.844Z,5.4
2019-01-27T02:15:03.233Z,5.5
2019-01-27T02:20:02.599Z,5.5
2019-01-27T02:25:02.992Z,5.5
2019-01-27T02:30:02.375Z,5.5
2019-01-27T02:35:02.766Z,5.5
2019-01-27T02:40:03.166Z,5.5
2019-01-27T02:45:02.565Z,5.5
2019-01-27T02:50:02.943Z,5.5
2019-01-27T02:55:02.518Z,5.8
2019-01-27T03:00:02.878Z,5.5
2019-01-27T03:05:03.221Z,5.5
2019-01-27T03:10:02.621Z,5.5
2019-01-27T03:15:02.958Z,5.5
2019-01-27T03:20:02.398Z,5.5
2019-01-27T03:25:02.849Z,5.5
2019-01-27T03:30:03.288Z,5.8
2019-01-27T03:35:02.689Z,5.5
2019-01-27T03:40:03.172Z,5.5
2019-01-27T03:45:02.587Z,5.5
2019-01-27T03:50:03.002Z,5.5
2019-01-27T03:55:02.457Z,5.5
2019-01-27T04:00:03.186Z,5.5
2019-01-27T04:05:02.603Z,5.8
2019-01-27T04:10:03.137Z,5.8
2019-01-27T04:15:02.561Z,5.9
2019-01-27T04:20:03.000Z,6.1
2019-01-27T04:25:02.426Z,6.1
2019-01-27T04:30:02.758Z,5.5
2019-01-27T04:35:03.121Z,5.5
2019-01-27T04:40:02.523Z,5.5
2019-01-27T04:45:02.854Z,5.5
2019-01-27T04:50:03.255Z,5.4
2019-01-27T04:55:02.653Z,5.4
2019-01-27T05:00:03.073Z,5.4
2019-01-27T05:10:03.042Z,5.4
2019-01-27T05:15:02.492Z,5.5
2019-01-27T05:20:02.931Z,5.5
2019-01-27T05:25:03.351Z,5.5
2019-01-27T05:30:02.763Z,5.5
2019-01-27T05:35:03.205Z,5.5
2019-01-27T05:40:02.614Z,5.5
2019-01-27T05:45:02.949Z,5.5
2019-01-27T05:50:02.586Z,5.5
2019-01-27T05:55:02.924Z,5.5
2019-01-27T06:00:03.316Z,5.5
2019-01-27T06:05:02.685Z,5.5
2019-01-27T06:10:03.134Z,5.5
2019-01-27T06:15:02.542Z,5.5
2019-01-27T06:20:02.896Z,5.5
2019-01-27T06:25:03.353Z,5.4
2019-01-27T06:30:02.748Z,5.4
2019-01-27T06:35:03.092Z,5.4
2019-01-27T06:40:02.495Z,5.4
2019-01-27T06:45:02.860Z,5.5
2019-01-27T06:50:03.193Z,5.4
2019-01-27T06:55:02.603Z,5.5
2019-01-27T07:00:02.993Z,5.5
2019-01-27T07:05:02.368Z,5.8
2019-01-27T07:10:02.824Z,6.0
2019-01-27T07:15:03.263Z,6.4
2019-01-27T07:20:02.666Z,6.4
2019-01-27T07:25:03.013Z,6.5
2019-01-27T07:30:02.433Z,6.5
2019-01-27T07:35:02.763Z,6.4
2019-01-27T07:40:03.230Z,6.5
2019-01-27T07:45:02.634Z,6.4
2019-01-27T07:50:02.995Z,6.1
2019-01-27T07:55:02.411Z,6.1
2019-01-27T08:00:02.846Z,6.4
2019-01-27T08:05:03.291Z,6.4
2019-01-27T08:10:02.683Z,6.4
2019-01-27T08:15:03.056Z,6.1
2019-01-27T08:20:02.385Z,5.4
2019-01-27T08:25:02.808Z,5.3
2019-01-27T08:30:03.161Z,5.3
2019-01-27T08:35:02.491Z,5.4
2019-01-27T08:40:02.941Z,5.3
2019-01-27T08:45:03.357Z,5.4
2019-01-27T08:50:02.811Z,5.4
2019-01-27T08:55:03.234Z,5.4
2019-01-27T09:00:02.831Z,5.4
2019-01-27T09:05:03.180Z,5.4
2019-01-27T09:10:02.602Z,5.4
2019-01-27T09:15:02.944Z,5.4
2019-01-27T09:20:03.379Z,5.4
2019-01-27T09:25:02.791Z,5.4
2019-01-27T09:30:03.444Z,5.5
2019-01-27T09:35:02.868Z,5.5
2019-01-27T09:40:03.311Z,5.9
2019-01-27T09:45:02.721Z,6.1
2019-01-27T09:50:02.267Z,6.1
2019-01-27T09:55:02.593Z,6.4
2019-01-27T10:00:02.978Z,6.4
2019-01-27T10:05:02.352Z,6.5
2019-01-27T10:10:02.798Z,6.4
2019-01-27T10:15:03.241Z,6.5
2019-01-27T10:20:02.684Z,6.4
2019-01-27T10:25:03.103Z,6.1
2019-01-27T10:30:02.518Z,6.0
2019-01-27T10:35:02.861Z,6.0
2019-01-27T10:40:09.241Z,6.0
2019-01-27T10:45:03.022Z,6.0
2019-01-27T10:50:02.482Z,6.1
2019-01-27T10:55:02.895Z,6.1
2019-01-27T11:00:03.339Z,6.4
2019-01-27T11:05:02.751Z,6.5
2019-01-27T11:10:03.198Z,6.5
2019-01-27T11:15:01.817Z,6.4
2019-01-27T11:20:03.263Z,6.1
2019-01-27T11:25:01.883Z,6.4
2019-01-27T11:30:03.231Z,6.1
2019-01-27T11:35:02.566Z,6.4
2019-01-27T11:40:02.991Z,6.4
2019-01-27T11:45:02.411Z,6.4
2019-01-27T11:50:02.764Z,6.5
2019-01-27T11:55:03.210Z,6.5
2019-01-27T12:00:02.606Z,6.5
2019-01-27T12:05:02.950Z,6.1
2019-01-27T12:10:02.375Z,5.5
2019-01-27T12:15:02.742Z,5.5
2019-01-27T12:20:03.168Z,5.5
2019-01-27T12:25:02.569Z,5.8
2019-01-27T12:30:03.045Z,5.8
2019-01-27T12:35:02.488Z,5.8
2019-01-27T12:40:02.976Z,5.8
2019-01-27T12:45:02.426Z,5.8
2019-01-27T12:50:02.842Z,5.5
2019-01-27T12:55:03.190Z,5.8
2019-01-27T13:00:02.625Z,5.9
2019-01-27T13:05:03.055Z,5.8
2019-01-27T13:10:02.462Z,5.8
2019-01-27T13:15:02.798Z,5.9
2019-01-27T13:20:03.163Z,5.8
2019-01-27T13:25:02.481Z,5.9
2019-01-27T13:30:02.997Z,5.8
2019-01-27T13:35:02.337Z,5.5
2019-01-27T13:40:02.799Z,5.5
2019-01-27T13:45:03.228Z,5.5
2019-01-27T13:50:02.628Z,5.4
2019-01-27T13:55:02.976Z,5.0
2019-01-27T14:00:02.388Z,5.0
2019-01-27T14:05:02.810Z,4.5
2019-01-27T14:10:03.280Z,4.5
2019-01-27T14:15:02.799Z,4.5
2019-01-27T14:20:03.150Z,4.5
2019-01-27T14:25:02.557Z,4.3
2019-01-27T14:30:02.928Z,4.3
2019-01-27T14:35:03.276Z,4.3
2019-01-27T14:40:02.761Z,4.3
2019-01-27T14:45:03.111Z,4.5
2019-01-27T14:50:02.528Z,4.3
2019-01-27T14:55:02.895Z,4.5
2019-01-27T15:00:03.312Z,4.3
2019-01-27T15:05:02.728Z,4.0
2019-01-27T15:10:03.181Z,4.0
2019-01-27T15:15:02.606Z,4.0
2019-01-27T15:20:02.957Z,4.0
2019-01-27T15:25:03.284Z,4.0
2019-01-27T15:30:02.728Z,4.0
2019-01-27T15:35:03.175Z,4.0
2019-01-27T15:40:02.653Z,4.0
2019-01-27T15:45:03.005Z,4.0
2019-01-27T15:50:02.412Z,3.7
2019-01-27T15:55:02.877Z,3.7
2019-01-27T16:00:07.738Z,3.7
2019-01-27T16:05:03.136Z,3.7
2019-01-27T16:10:02.555Z,3.7
2019-01-27T16:15:02.954Z,4.0
2019-01-27T16:20:03.346Z,3.7
2019-01-27T16:25:02.759Z,3.7
2019-01-27T16:30:03.095Z,3.7
2019-01-27T16:35:02.514Z,3.7
2019-01-27T16:40:02.961Z,3.7
2019-01-27T16:45:03.401Z,3.7
2019-01-27T16:50:02.820Z,3.7
2019-01-27T16:55:03.303Z,3.7
2019-01-27T17:00:02.623Z,3.7
2019-01-27T17:05:03.024Z,3.5
2019-01-27T17:10:02.448Z,3.2
2019-01-27T17:15:02.789Z,3.2
2019-01-27T17:20:03.277Z,3.2
2019-01-27T17:25:02.640Z,3.2
2019-01-27T17:30:03.206Z,3.2
2019-01-27T17:35:02.617Z,3.0
2019-01-27T17:40:03.054Z,2.9
2019-01-27T17:45:02.373Z,2.9
2019-01-27T17:50:02.717Z,2.9
2019-01-27T17:55:03.055Z,2.9
2019-01-27T18:00:02.475Z,2.9
2019-01-27T18:05:02.817Z,2.9
2019-01-27T18:10:03.268Z,3.0
2019-01-27T18:15:02.681Z,3.0
2019-01-27T18:20:03.141Z,3.0
2019-01-27T18:25:02.565Z,2.9
2019-01-27T18:30:02.997Z,2.9
2019-01-27T18:35:02.434Z,2.7
2019-01-27T18:40:02.866Z,2.7
2019-01-27T18:45:03.288Z,2.7
2019-01-27T18:50:02.763Z,2.5
2019-01-27T18:55:03.158Z,2.5
2019-01-27T19:00:02.569Z,2.5
2019-01-27T19:05:02.910Z,2.5
2019-01-27T19:10:02.441Z,2.7
2019-01-27T19:15:02.915Z,2.7
2019-01-27T19:20:03.350Z,2.7
2019-01-27T19:25:02.731Z,2.9
2019-01-27T19:30:03.088Z,2.7
2019-01-27T19:35:02.509Z,2.7
2019-01-27T19:40:02.942Z,2.7
2019-01-27T19:45:03.425Z,2.7
2019-01-27T19:50:02.803Z,2.9
2019-01-27T19:55:03.142Z,2.9
2019-01-27T20:00:02.557Z,2.9
2019-01-27T20:05:02.922Z,2.9
2019-01-27T20:10:02.322Z,2.9
2019-01-27T20:15:02.669Z,3.0
2019-01-27T20:20:02.213Z,3.0
2019-01-27T20:25:02.640Z,3.0
2019-01-27T20:30:03.292Z,2.9
2019-01-27T20:35:02.702Z,3.0
2019-01-27T20:40:03.143Z,3.0
2019-01-27T20:45:02.601Z,3.0
2019-01-27T20:50:03.027Z,3.2
2019-01-27T20:55:02.383Z,3.2
2019-01-27T21:00:02.790Z,3.2
2019-01-27T21:05:03.287Z,3.2
2019-01-27T21:10:02.723Z,3.0
2019-01-27T21:15:03.058Z,3.2
2019-01-27T21:20:02.488Z,3.2
2019-01-27T21:25:02.856Z,3.2
2019-01-27T21:30:03.308Z,3.2
2019-01-27T21:35:02.718Z,3.2
2019-01-27T21:40:03.147Z,3.2
2019-01-27T21:45:02.558Z,3.2
2019-01-27T21:50:02.893Z,3.2
2019-01-27T21:55:03.247Z,3.2
2019-01-27T22:00:02.542Z,3.2
2019-01-27T22:05:02.895Z,3.2
2019-01-27T22:10:03.375Z,3.2
2019-01-27T22:15:02.761Z,3.2
2019-01-27T22:20:03.235Z,3.2
2019-01-27T22:25:02.647Z,3.2
2019-01-27T22:30:03.068Z,3.2
2019-01-27T22:35:02.489Z,3.2
2019-01-27T22:40:02.925Z,3.2
2019-01-27T22:45:03.273Z,3.2
2019-01-27T22:50:02.724Z,3.2
2019-01-27T22:55:03.134Z,2.9
2019-01-27T23:00:03.426Z,2.9
2019-01-27T23:05:02.849Z,2.9
2019-01-27T23:10:03.330Z,3.0
2019-01-27T23:15:02.755Z,2.9
2019-01-27T23:20:03.233Z,2.9
2019-01-27T23:25:02.645Z,2.9
2019-01-27T23:30:03.062Z,3.0
2019-01-27T23:35:02.473Z,2.9
2019-01-27T23:40:02.922Z,2.9
2019-01-27T23:45:03.356Z,2.9
2019-01-27T23:50:02.776Z,3.0
2019-01-27T23:55:03.121Z,3.0
